Time;durP1;ratioP1;P1;durP2;ratioP2;P2;SDS_P1;SDS_P2;PMS_P1;PMS_P2;Temp;Humidity;BMP_temperature;BMP_pressure;BME280_temperature;BME280_humidity;BME280_pressure;Samples;Min_cycle;Max_cycle;Signal;HPM_P1;HPM_P2
2022/07/27 00:00:06;;;;;;;1.80;1.70;;;;;;;19.32;52.98;99484.38;4987514;28;20238;-76
2022/07/27 00:02:37;;;;;;;3.03;1.90;;;;;;;19.37;53.06;99490.91;4989378;28;20488;-75
2022/07/27 00:05:02;;;;;;;4.57;1.90;;;;;;;19.40;52.99;99500.41;4988273;28;20218;-76
2022/07/27 00:07:28;;;;;;;1.87;1.67;;;;;;;19.42;52.97;99491.25;4985108;28;20226;-75
2022/07/27 00:09:53;;;;;;;2.50;1.60;;;;;;;19.41;53.11;99499.41;4986502;28;20596;-75
2022/07/27 00:12:18;;;;;;;1.97;1.60;;;;;;;19.36;53.61;99501.69;4988475;28;20290;-75
2022/07/27 00:14:44;;;;;;;3.10;2.07;;;;;;;19.32;54.21;99500.34;4989852;28;20205;-75
2022/07/27 00:17:09;;;;;;;2.00;1.60;;;;;;;19.30;53.85;99491.66;4989837;28;20204;-75
2022/07/27 00:19:34;;;;;;;3.53;2.17;;;;;;;19.31;53.37;99493.34;4989777;28;20223;-75
2022/07/27 00:22:00;;;;;;;2.50;1.90;;;;;;;19.30;53.39;99491.66;4991293;28;20216;-75
2022/07/27 00:24:25;;;;;;;3.17;2.07;;;;;;;19.30;53.29;99491.66;4989807;28;20216;-75
2022/07/27 00:26:51;;;;;;;2.43;1.60;;;;;;;19.30;53.22;99494.34;4990236;28;20206;-75
2022/07/27 00:29:17;;;;;;;2.83;1.93;;;;;;;19.29;53.21;99485.50;4989480;28;20260;-76
2022/07/27 00:31:42;;;;;;;1.70;1.60;;;;;;;19.27;53.17;99489.31;4989400;28;20659;-75
2022/07/27 00:34:08;;;;;;;2.20;1.83;;;;;;;19.22;54.65;99487.94;4987281;28;20500;-75
2022/07/27 00:36:33;;;;;;;1.93;1.60;;;;;;;19.09;55.12;99490.22;4990029;28;20237;-75
2022/07/27 00:38:59;;;;;;;1.93;1.57;;;;;;;19.00;55.48;99486.63;4988108;28;20250;-75
2022/07/27 00:41:24;;;;;;;1.80;1.70;;;;;;;18.96;55.40;99473.81;4990789;28;20296;-75
2022/07/27 00:43:50;;;;;;;2.03;1.90;;;;;;;18.91;55.27;99478.75;4984298;28;20601;-75
2022/07/27 00:46:16;;;;;;;2.03;1.80;;;;;;;18.85;55.30;99479.34;4989894;28;20213;-75
2022/07/27 00:48:41;;;;;;;2.13;1.93;;;;;;;18.72;55.30;99479.72;4988252;28;20545;-75
2022/07/27 00:51:06;;;;;;;2.00;1.80;;;;;;;18.66;55.57;99477.66;4989028;28;20231;-75
2022/07/27 00:53:33;;;;;;;1.77;1.60;;;;;;;18.64;55.44;99475.16;4985679;28;20234;-76
2022/07/27 00:55:58;;;;;;;1.90;1.80;;;;;;;18.65;55.21;99471.50;4987849;28;20633;-75
2022/07/27 00:58:25;;;;;;;4.90;2.17;;;;;;;18.64;55.19;99469.84;4989772;28;20992;-75
2022/07/27 01:00:51;;;;;;;3.07;2.50;;;;;;;18.63;55.17;99449.53;4981167;28;20670;-76
2022/07/27 01:03:17;;;;;;;2.90;2.10;;;;;;;18.64;55.22;99453.06;4986745;28;20504;-76
2022/07/27 01:05:42;;;;;;;3.60;2.60;;;;;;;18.54;55.62;99445.97;4985149;28;20466;-77
2022/07/27 01:08:10;;;;;;;2.47;2.27;;;;;;;18.35;55.80;99443.47;4985007;28;20522;-76
2022/07/27 01:10:37;;;;;;;2.00;1.90;;;;;;;18.19;56.24;99438.00;4987394;28;20759;-76
2022/07/27 01:13:03;;;;;;;3.03;2.10;;;;;;;18.11;56.52;99431.59;4989783;28;20484;-75
2022/07/27 01:15:29;;;;;;;2.00;1.80;;;;;;;18.08;56.54;99431.91;4989909;28;20513;-75
2022/07/27 01:17:55;;;;;;;5.80;2.23;;;;;;;18.02;56.86;99427.19;4986631;28;20600;-77
2022/07/27 01:20:21;;;;;;;2.23;2.03;;;;;;;17.97;57.27;99424.16;4989831;28;20475;-76
2022/07/27 01:22:46;;;;;;;1.80;1.50;;;;;;;17.89;57.65;99422.22;4987586;28;20456;-77
2022/07/27 01:25:13;;;;;;;3.07;1.93;;;;;;;17.79;58.34;99424.09;4990052;28;20211;-75
2022/07/27 01:27:38;;;;;;;3.57;2.13;;;;;;;17.70;58.73;99420.50;4984779;28;20257;-76
2022/07/27 01:30:25;;;;;;;2.33;1.90;;;;;;;17.67;58.81;99415.47;4988177;28;20930;-75
2022/07/27 01:33:01;;;;;;;3.42;2.33;;;;;;;17.57;59.42;99417.34;4987254;28;20485;-75
2022/07/27 01:35:26;;;;;;;3.07;2.27;;;;;;;17.50;59.52;99421.56;4984142;28;20200;-75
2022/07/27 01:37:52;;;;;;;2.03;1.80;;;;;;;17.50;59.25;99407.44;4971329;28;20479;-77
2022/07/27 01:40:17;;;;;;;2.27;2.07;;;;;;;17.54;59.27;99403.53;4987071;28;20250;-75
2022/07/27 01:42:42;;;;;;;2.17;1.97;;;;;;;17.55;59.05;99413.16;4988233;28;20239;-76
2022/07/27 01:45:08;;;;;;;3.80;1.80;;;;;;;17.57;59.00;99417.34;4989551;28;20290;-75
2022/07/27 01:47:34;;;;;;;2.33;1.93;;;;;;;17.58;58.99;99419.03;4985340;28;20584;-76
2022/07/27 01:49:59;;;;;;;2.40;2.20;;;;;;;17.57;58.64;99417.34;4987653;28;20331;-75
2022/07/27 01:52:24;;;;;;;3.50;2.00;;;;;;;17.56;58.73;99421.00;4988237;28;20595;-75
2022/07/27 01:54:50;;;;;;;2.67;1.87;;;;;;;17.56;58.53;99417.50;4989275;28;20593;-76
2022/07/27 01:57:15;;;;;;;3.13;2.20;;;;;;;17.55;58.56;99418.47;4985362;28;20285;-76
2022/07/27 01:59:41;;;;;;;3.07;2.17;;;;;;;17.55;58.47;99421.13;4987946;28;20281;-75
2022/07/27 02:02:06;;;;;;;2.60;2.40;;;;;;;17.56;58.59;99420.16;4979704;28;20204;-76
2022/07/27 02:04:31;;;;;;;3.70;2.27;;;;;;;17.56;58.60;99420.16;4985526;28;20199;-75
2022/07/27 02:06:57;;;;;;;3.83;2.17;;;;;;;17.58;58.41;99427.00;4989033;28;20213;-75
2022/07/27 02:09:24;;;;;;;2.30;2.10;;;;;;;17.60;58.49;99426.81;4983246;28;20233;-75
2022/07/27 02:14:34;;;;;;;1.83;1.67;;;;;;;17.53;58.76;99421.28;4989087;28;20448;-75
2022/07/27 02:17:00;;;;;;;2.47;1.90;;;;;;;17.51;58.78;99422.41;4976321;28;20525;-75
2022/07/27 02:19:25;;;;;;;2.93;2.30;;;;;;;17.48;58.60;99428.84;4979430;28;20663;-76
2022/07/27 02:21:50;;;;;;;2.13;1.93;;;;;;;17.48;58.81;99423.53;4980014;28;20216;-76
2022/07/27 02:24:16;;;;;;;3.17;2.23;;;;;;;17.49;58.80;99427.84;4979766;28;20199;-76
2022/07/27 02:26:41;;;;;;;1.73;1.63;;;;;;;17.48;58.86;99423.53;4982613;28;20715;-75
2022/07/27 02:29:07;;;;;;;3.83;2.23;;;;;;;17.48;58.86;99418.22;4982045;28;20214;-76
2022/07/27 02:31:32;;;;;;;3.63;2.10;;;;;;;17.50;58.79;99420.72;4982377;28;20211;-75
2022/07/27 02:33:57;;;;;;;4.00;3.10;;;;;;;17.56;59.80;99422.81;4983725;28;20480;-76
2022/07/27 02:36:23;;;;;;;2.60;2.40;;;;;;;17.50;59.95;99423.38;4985111;28;20195;-75
2022/07/27 02:38:48;;;;;;;2.80;2.40;;;;;;;17.36;60.22;99414.06;4988344;28;20600;-76
2022/07/27 02:41:14;;;;;;;4.33;1.93;;;;;;;17.22;60.75;99418.03;4988340;28;20248;-75
2022/07/27 02:43:39;;;;;;;4.57;2.10;;;;;;;17.06;61.26;99423.13;4988737;28;20242;-75
2022/07/27 02:46:04;;;;;;;2.97;2.67;;;;;;;16.91;61.81;99428.88;4984083;28;20221;-75
2022/07/27 02:48:31;;;;;;;2.37;2.17;;;;;;;16.81;62.22;99428.06;4983772;28;20224;-76
2022/07/27 02:51:00;;;;;;;6.00;2.03;;;;;;;16.73;62.67;99433.19;4983764;28;20220;-76
2022/07/27 02:53:26;;;;;;;2.30;2.10;;;;;;;16.65;63.03;99425.09;4988325;28;20893;-75
2022/07/27 02:55:52;;;;;;;2.23;2.03;;;;;;;16.60;63.02;99417.56;4981469;28;20463;-75
2022/07/27 02:58:17;;;;;;;2.40;2.20;;;;;;;16.63;62.99;99413.78;4983970;28;20470;-75
2022/07/27 03:00:43;;;;;;;5.53;2.07;;;;;;;16.70;62.71;99417.56;4987922;28;20206;-74
2022/07/27 03:03:08;;;;;;;5.77;2.70;;;;;;;16.79;62.70;99412.25;4985969;28;20487;-76
2022/07/27 03:05:33;;;;;;;2.83;1.80;;;;;;;16.87;62.26;99413.38;4989637;28;20204;-74
2022/07/27 03:07:59;;;;;;;2.10;1.90;;;;;;;16.92;61.98;99416.44;4985035;28;20565;-74
2022/07/27 03:10:24;;;;;;;3.00;2.33;;;;;;;16.95;61.74;99410.84;4989069;28;20302;-74
2022/07/27 03:12:50;;;;;;;3.23;2.13;;;;;;;16.96;61.75;99405.41;4987775;28;20696;-75
2022/07/27 03:15:15;;;;;;;2.23;2.03;;;;;;;16.92;62.10;99414.63;4983699;28;20212;-75
2022/07/27 03:17:41;;;;;;;3.70;2.10;;;;;;;16.81;62.48;99410.31;4990609;28;20423;-75
2022/07/27 03:20:07;;;;;;;3.07;2.03;;;;;;;16.71;62.97;99411.28;4991215;28;20738;-76
2022/07/27 03:22:33;;;;;;;4.80;2.80;;;;;;;16.62;63.63;99414.78;4992404;28;20295;-75
2022/07/27 03:24:59;;;;;;;2.87;2.10;;;;;;;16.52;63.96;99412.97;4989313;28;20666;-75
2022/07/27 03:27:24;;;;;;;1.97;1.87;;;;;;;16.45;64.27;99409.22;4991174;28;20212;-77
2022/07/27 03:29:50;;;;;;;2.27;2.07;;;;;;;16.38;64.55;99411.56;4984588;28;20501;-75
2022/07/27 03:32:15;;;;;;;2.57;2.00;;;;;;;16.31;64.78;99420.22;4986877;28;20239;-74
2022/07/27 03:34:41;;;;;;;3.23;2.10;;;;;;;16.26;64.87;99425.94;4989519;28;20662;-75
2022/07/27 03:37:06;;;;;;;2.23;2.00;;;;;;;16.29;64.78;99420.38;4987730;28;20706;-75
2022/07/27 03:39:32;;;;;;;2.23;1.97;;;;;;;16.35;64.48;99413.69;4987739;28;20235;-75
2022/07/27 03:41:57;;;;;;;2.73;2.30;;;;;;;16.43;64.25;99421.78;4991734;28;20741;-75
2022/07/27 03:44:23;;;;;;;2.33;2.10;;;;;;;16.53;63.99;99421.78;4991519;28;20203;-74
2022/07/27 03:46:48;;;;;;;2.13;1.80;;;;;;;16.61;63.69;99424.56;4987655;28;20792;-76
2022/07/27 03:49:13;;;;;;;3.03;2.70;;;;;;;16.68;63.56;99414.22;4990572;28;20228;-75
2022/07/27 03:51:39;;;;;;;2.60;2.07;;;;;;;16.74;63.32;99418.94;4989435;28;20205;-75
2022/07/27 03:54:05;;;;;;;2.73;2.20;;;;;;;16.76;63.49;99417.00;4990956;28;20223;-75
2022/07/27 03:56:31;;;;;;;2.70;2.07;;;;;;;16.70;64.00;99418.41;4985760;28;20207;-75
2022/07/27 03:58:59;;;;;;;2.80;2.27;;;;;;;16.62;64.40;99428.03;4988212;28;20347;-75
2022/07/27 04:01:24;;;;;;;2.60;2.40;;;;;;;16.51;64.81;99432.50;4986724;28;20458;-75
2022/07/27 04:03:50;;;;;;;3.40;2.20;;;;;;;16.43;65.03;99431.53;4987843;28;20458;-75
2022/07/27 04:06:15;;;;;;;2.70;2.50;;;;;;;16.36;65.39;99421.50;4990631;28;20215;-75
2022/07/27 04:08:40;;;;;;;2.60;2.20;;;;;;;16.32;65.48;99427.22;4989296;28;20692;-75
2022/07/27 04:11:06;;;;;;;3.20;2.90;;;;;;;16.28;65.56;99423.16;4990472;28;20243;-75
2022/07/27 04:13:31;;;;;;;2.80;2.50;;;;;;;16.25;66.02;99420.78;4986056;28;20363;-75
2022/07/27 04:15:57;;;;;;;4.47;3.40;;;;;;;16.23;66.08;99420.06;4986767;28;20209;-75
2022/07/27 04:18:24;;;;;;;2.73;2.10;;;;;;;16.24;66.04;99417.28;4989353;28;20198;-75
2022/07/27 04:20:49;;;;;;;2.33;2.13;;;;;;;16.26;65.91;99419.81;4971496;28;20301;-75
2022/07/27 04:23:14;;;;;;;3.07;2.60;;;;;;;16.28;66.13;99417.84;4990437;28;20553;-75
2022/07/27 04:25:40;;;;;;;2.90;2.70;;;;;;;16.28;65.85;99418.72;4990871;28;20224;-75
2022/07/27 04:28:05;;;;;;;3.30;2.47;;;;;;;16.32;65.56;99416.59;4985036;28;20235;-75
2022/07/27 04:30:31;;;;;;;3.83;2.70;;;;;;;16.37;65.43;99417.03;4983834;28;20499;-75
2022/07/27 04:32:57;;;;;;;2.67;2.47;;;;;;;16.42;65.29;99420.09;4985307;28;20211;-75
2022/07/27 04:35:22;;;;;;;2.60;2.30;;;;;;;16.45;65.18;99417.16;4986689;28;20467;-74
2022/07/27 04:37:47;;;;;;;5.73;2.40;;;;;;;16.50;65.11;99419.38;4990477;28;20207;-75
2022/07/27 04:40:13;;;;;;;2.70;2.50;;;;;;;16.56;64.84;99427.63;5002996;23;20901;-90
2022/07/27 04:42:46;;;;;;;3.50;2.57;;;;;;;16.65;64.59;99425.09;4963951;28;20188;-90
2022/07/27 04:45:15;;;;;;;3.47;2.30;;;;;;;16.77;64.14;99431.97;4965262;28;21021;-89
2022/07/27 04:47:40;;;;;;;3.40;2.00;;;;;;;16.85;63.79;99428.59;4949178;28;20487;-89
2022/07/27 04:50:06;;;;;;;3.27;2.60;;;;;;;16.97;63.40;99425.66;4962503;28;20467;-89
2022/07/27 04:52:35;;;;;;;3.03;2.30;;;;;;;17.07;62.94;99425.63;4967528;28;20213;-90
2022/07/27 04:55:11;;;;;;;2.63;2.43;;;;;;;17.21;62.63;99434.97;4946477;28;20460;-92
2022/07/27 04:57:47;;;;;;;;;;;;;;;;;;;;;
2022/07/27 05:00:18;;;;;;;3.25;2.95;;;;;;;17.52;61.90;99440.84;4950512;28;20571;-89
2022/07/27 05:02:48;;;;;;;4.25;2.70;;;;;;;17.61;61.74;99442.63;4936033;28;20493;-91
2022/07/27 05:05:14;;;;;;;3.10;2.90;;;;;;;17.69;61.43;99441.91;4954462;28;20217;-90
2022/07/27 05:07:39;;;;;;;3.40;3.10;;;;;;;17.80;61.39;99439.06;4957289;28;20487;-90
2022/07/27 05:10:10;;;;;;;4.13;3.17;;;;;;;17.86;61.17;99441.13;4960556;28;20559;-90
2022/07/27 05:12:39;;;;;;;4.80;2.60;;;;;;;17.89;60.90;99442.66;4960803;28;20474;-91
2022/07/27 05:15:04;;;;;;;2.70;2.40;;;;;;;17.98;60.90;99446.22;4951166;28;20460;-89
2022/07/27 05:17:30;;;;;;;5.37;2.70;;;;;;;18.09;60.57;99444.22;4971123;28;20217;-89
2022/07/27 05:19:56;;;;;;;2.90;2.43;;;;;;;18.33;59.55;99446.31;4965605;28;20471;-90
2022/07/27 05:22:28;;;;;;;3.33;2.73;;;;;;;18.45;59.52;99444.25;4961209;28;20692;-89
2022/07/27 05:24:57;;;;;;;3.20;3.00;;;;;;;19.38;56.87;99452.59;4962681;28;20654;-91
2022/07/27 05:27:26;;;;;;;3.77;3.47;;;;;;;19.61;55.94;99452.91;4957293;28;21010;-90
2022/07/27 05:29:54;;;;;;;2.50;2.27;;;;;;;19.46;56.44;99449.97;4955682;28;20208;-89
2022/07/27 05:32:20;;;;;;;5.50;2.50;;;;;;;19.33;57.01;99448.75;4956776;28;20496;-91
2022/07/27 05:34:46;;;;;;;7.67;2.70;;;;;;;19.17;57.81;99463.66;4959227;28;20608;-91
2022/07/27 05:37:14;;;;;;;7.33;2.90;;;;;;;19.04;58.48;99460.56;4960856;28;20962;-90
2022/07/27 05:39:51;;;;;;;2.77;2.17;;;;;;;18.97;58.99;99462.16;4961932;28;20490;-90
2022/07/27 05:42:16;;;;;;;4.70;2.97;;;;;;;19.21;58.19;99458.84;4962918;28;20710;-90
2022/07/27 05:44:44;;;;;;;6.53;3.03;;;;;;;19.35;57.69;99455.59;4963685;28;20510;-90
2022/07/27 05:47:37;;;;;;;4.33;2.87;;;;;;;19.48;57.39;99457.00;4966174;28;20228;-91
2022/07/27 05:50:06;;;;;;;4.40;3.23;;;;;;;19.51;57.69;99465.50;4968787;28;20460;-90
2022/07/27 05:52:39;;;;;;;4.53;2.80;;;;;;;19.51;57.74;99454.84;4966867;28;20465;-89
2022/07/27 05:55:15;;;;;;;3.17;2.23;;;;;;;19.57;57.26;99458.69;4967091;28;20460;-89
2022/07/27 05:58:01;;;;;;;5.07;3.40;;;;;;;19.55;56.94;99468.66;4967881;28;20503;-89
2022/07/27 06:00:26;;;;;;;5.40;3.60;;;;;;;19.61;56.73;99463.56;4963262;28;20501;-88
2022/07/27 06:02:53;;;;;;;7.35;3.00;;;;;;;20.08;55.38;99470.25;4964812;28;20505;-89
2022/07/27 06:05:22;;;;;;;3.90;2.43;;;;;;;20.32;55.01;99466.81;4966458;28;20704;-91
2022/07/27 06:07:59;;;;;;;3.10;2.57;;;;;;;20.36;55.02;99468.19;4966207;28;20571;-91
2022/07/27 06:10:29;;;;;;;5.23;3.43;;;;;;;20.32;55.34;99456.16;4967186;28;20996;-90
2022/07/27 06:13:03;;;;;;;3.60;3.20;;;;;;;20.43;54.87;99463.84;4951071;28;20470;-89
2022/07/27 06:15:31;;;;;;;4.13;2.77;;;;;;;20.07;56.09;99466.75;4970413;28;20459;-89
2022/07/27 06:18:07;;;;;;;3.53;3.20;;;;;;;20.06;56.23;99464.25;4970464;28;20246;-91
2022/07/27 06:20:44;;;;;;;3.63;2.67;;;;;;;20.21;55.89;99464.47;4979114;28;20500;-89
2022/07/27 06:23:12;;;;;;;4.77;2.93;;;;;;;20.48;55.20;99456.19;4986009;28;20520;-90
2022/07/27 06:25:38;;;;;;;5.50;3.50;;;;;;;21.43;52.65;99451.16;4987719;28;20467;-89
2022/07/27 06:28:12;;;;;;;5.10;2.60;;;;;;;21.73;51.71;99456.72;4970064;28;20515;-90
2022/07/27 06:30:45;;;;;;;4.60;3.00;;;;;;;22.17;50.94;99452.66;4989746;28;20471;-90
2022/07/27 06:33:16;;;;;;;3.33;3.03;;;;;;;23.72;47.01;99446.00;4970383;28;20288;-92
2022/07/27 06:35:41;;;;;;;5.30;3.10;;;;;;;23.79;47.02;99441.56;4972534;28;20470;-92
2022/07/27 06:38:09;;;;;;;3.23;2.90;;;;;;;24.09;46.36;99446.88;4978665;28;20474;-92
2022/07/27 06:40:35;;;;;;;2.70;2.23;;;;;;;24.61;45.34;99442.28;4986908;28;20292;-91
2022/07/27 06:43:10;;;;;;;3.83;2.80;;;;;;;24.67;44.97;99431.59;4970654;28;20458;-92
2022/07/27 06:45:45;;;;;;;3.90;3.07;;;;;;;24.49;45.79;99439.25;4966494;28;20846;-91
2022/07/27 06:48:20;;;;;;;3.07;2.80;;;;;;;24.36;46.22;99441.78;4967947;28;20451;-91
2022/07/27 06:50:54;;;;;;;3.03;2.73;;;;;;;24.18;46.82;99442.22;4967392;28;20468;-89
2022/07/27 06:53:29;;;;;;;3.73;3.30;;;;;;;24.29;46.51;99439.03;4958487;28;20619;-88
2022/07/27 06:56:07;;;;;;;3.20;2.90;;;;;;;24.25;46.61;99438.59;4948838;28;20454;-89
2022/07/27 06:58:56;;;;;;;;;;;;;;;;;;;;;
2022/07/27 07:01:43;;;;;;;4.73;3.10;;;;;;;24.52;45.95;99433.53;4978300;28;20528;-88
2022/07/27 07:04:21;;;;;;;6.03;3.40;;;;;;;26.52;41.02;99430.13;4974506;28;20463;-89
2022/07/27 07:06:59;;;;;;;;;;;;;;;;;;;;;
2022/07/27 07:09:29;;;;;;;4.47;2.87;;;;;;;27.91;37.84;99431.81;4967153;28;20451;-90
2022/07/27 07:11:55;;;;;;;3.50;2.37;;;;;;;27.26;38.98;99433.66;4971080;28;20432;-89
2022/07/27 07:14:25;;;;;;;6.03;2.70;;;;;;;26.56;40.99;99442.13;4968302;28;20461;-89
2022/07/27 07:17:00;;;;;;;5.83;3.10;;;;;;;25.80;42.29;99453.88;4972087;28;20447;-88
2022/07/27 07:19:33;;;;;;;2.63;2.33;;;;;;;25.08;43.37;99449.69;4971604;28;20476;-88
2022/07/27 07:22:07;;;;;;;6.70;2.90;;;;;;;24.56;44.62;99450.91;4953688;28;20458;-90
2022/07/27 07:24:43;;;;;;;3.10;2.77;;;;;;;24.26;45.15;99450.16;4969304;28;20544;-89
2022/07/27 07:27:12;;;;;;;3.80;3.50;;;;;;;24.03;46.05;99447.63;4964567;28;20998;-88
2022/07/27 07:29:38;;;;;;;3.57;3.17;;;;;;;23.83;46.32;99452.75;4969686;28;20457;-88
2022/07/27 07:32:08;;;;;;;2.63;2.40;;;;;;;23.69;46.67;99448.22;4968724;28;20357;-89
2022/07/27 07:35:07;;;;;;;4.53;3.10;;;;;;;23.55;47.27;99453.41;4969062;28;20212;-93
2022/07/27 07:37:43;;;;;;;5.00;3.40;;;;;;;23.30;47.87;99449.31;4970814;28;20198;-89
2022/07/27 07:40:14;;;;;;;8.90;2.93;;;;;;;23.18;48.37;99449.75;4968621;28;20480;-89
2022/07/27 07:42:58;;;;;;;5.63;2.73;;;;;;;23.22;48.59;99452.06;4952035;28;20518;-89
2022/07/27 07:45:28;;;;;;;3.13;2.87;;;;;;;23.18;48.68;99440.91;4964404;28;20510;-88
2022/07/27 07:48:04;;;;;;;;;;;;;;;;;;;;;
2022/07/27 07:50:56;;;;;;;;;;;;;;;;;;;;;
2022/07/27 07:53:50;;;;;;;2.53;2.33;;;;;;;23.34;48.67;99450.63;4951744;28;20468;-91
2022/07/27 07:56:26;;;;;;;3.60;2.70;;;;;;;23.46;48.23;99449.13;4968822;28;20982;-89
2022/07/27 07:59:03;;;;;;;7.73;3.10;;;;;;;23.62;47.51;99453.47;4953090;28;20974;-90
2022/07/27 08:01:29;;;;;;;5.77;3.60;;;;;;;23.87;46.88;99448.66;4950527;28;20980;-89
2022/07/27 08:04:05;;;;;;;4.07;3.10;;;;;;;24.01;46.54;99455.88;4967260;28;20964;-89
2022/07/27 08:06:41;;;;;;;3.20;2.90;;;;;;;24.17;46.07;99453.97;4968884;28;20222;-89
2022/07/27 08:09:20;;;;;;;;;;;;;;;;;;;;;
2022/07/27 08:11:46;;;;;;;3.80;3.10;;;;;;;24.41;45.80;99448.25;4946505;28;20474;-88
2022/07/27 08:14:19;;;;;;;4.13;3.23;;;;;;;24.75;44.81;99446.75;4967175;28;21231;-89
2022/07/27 08:16:53;;;;;;;7.17;3.87;;;;;;;25.19;43.06;99448.34;4971115;28;20491;-89
2022/07/27 08:19:23;;;;;;;4.70;4.30;;;;;;;25.43;42.71;99455.13;4969853;28;20924;-90
2022/07/27 08:21:51;;;;;;;6.20;3.30;;;;;;;25.50;42.36;99453.31;4970325;28;21019;-90
2022/07/27 08:24:17;;;;;;;4.77;3.27;;;;;;;25.26;43.06;99446.53;4968523;28;20465;-91
2022/07/27 08:26:44;;;;;;;6.60;3.30;;;;;;;25.52;42.73;99445.88;4967753;28;20466;-90
2022/07/27 08:29:21;;;;;;;3.57;3.07;;;;;;;26.02;41.48;99443.03;4968845;28;21096;-87
2022/07/27 08:31:49;;;;;;;3.60;3.30;;;;;;;27.19;38.68;99439.03;4967815;28;20452;-88
2022/07/27 08:34:15;;;;;;;4.33;2.80;;;;;;;28.35;36.18;99438.22;4974118;28;20868;-91
2022/07/27 08:36:46;;;;;;;8.73;3.53;;;;;;;29.52;33.90;99433.09;4975661;28;20257;-89
2022/07/27 08:39:14;;;;;;;3.87;2.77;;;;;;;30.05;32.74;99423.50;4983477;28;20523;-90
2022/07/27 08:41:52;;;;;;;;;;;;;;;;;;;;;
2022/07/27 08:44:32;;;;;;;3.20;2.93;;;;;;;27.78;36.77;99439.94;4969983;28;20484;-89
2022/07/27 08:47:03;;;;;;;3.33;3.03;;;;;;;27.11;37.35;99431.13;4973415;28;20466;-89
2022/07/27 08:49:30;;;;;;;3.47;3.10;;;;;;;26.56;38.83;99430.53;4973844;28;20495;-89
2022/07/27 08:52:11;;;;;;;4.23;3.13;;;;;;;26.86;38.38;99431.78;4973997;28;20460;-90
2022/07/27 08:54:50;;;;;;;;;;;;;;;;;;;;;
2022/07/27 08:57:35;;;;;;;3.60;3.27;;;;;;;26.75;37.91;99434.28;4956491;28;20833;-91
2022/07/27 09:00:05;;;;;;;2.50;2.30;;;;;;;26.98;37.92;99433.84;4974070;28;20459;-91
2022/07/27 09:02:41;;;;;;;3.37;3.00;;;;;;;27.22;37.12;99435.09;4972545;28;20556;-92
2022/07/27 09:05:24;;;;;;;5.10;2.50;;;;;;;27.51;36.57;99439.19;4974728;28;20461;-92
2022/07/27 09:08:30;;;;;;;3.90;3.40;;;;;;;28.08;35.32;99434.00;4970847;28;20532;-92
2022/07/27 09:10:58;;;;;;;3.83;2.90;;;;;;;27.80;35.47;99432.47;4959912;28;20453;-91
2022/07/27 09:13:28;;;;;;;3.17;2.87;;;;;;;27.74;36.02;99430.63;4973920;28;20449;-90
2022/07/27 09:16:08;;;;;;;3.97;2.50;;;;;;;28.01;35.38;99432.19;4973685;28;20482;-91
2022/07/27 09:18:37;;;;;;;2.20;2.10;;;;;;;28.40;34.23;99429.47;4957130;28;20465;-90
2022/07/27 09:21:10;;;;;;;3.70;2.37;;;;;;;28.54;34.10;99430.22;4973916;28;20469;-91
2022/07/27 09:23:44;;;;;;;3.17;2.93;;;;;;;28.47;34.47;99421.34;4971621;28;20502;-89
2022/07/27 09:26:21;;;;;;;2.40;2.20;;;;;;;28.77;33.84;99427.75;4974633;28;20457;-91
2022/07/27 09:29:01;;;;;;;6.80;3.10;;;;;;;28.83;33.30;99426.88;4969252;28;20986;-91
2022/07/27 09:31:40;;;;;;;;;;;;;;;;;;;;;
2022/07/27 09:34:10;;;;;;;4.60;2.80;;;;;;;28.86;33.87;99421.03;4975900;28;20537;-92
2022/07/27 09:36:52;;;;;;;2.93;2.73;;;;;;;28.94;34.18;99417.22;4959160;28;20449;-90
2022/07/27 09:39:37;;;;;;;8.53;3.20;;;;;;;29.00;34.76;99419.06;4975306;28;20584;-91
2022/07/27 09:42:21;;;;;;;7.63;3.37;;;;;;;28.97;34.87;99421.34;4974503;28;20485;-91
2022/07/27 09:45:00;;;;;;;3.47;3.17;;;;;;;29.07;34.53;99421.72;4972194;28;20468;-91
2022/07/27 09:47:45;;;;;;;;;;;;;;;;;;;;;
2022/07/27 09:50:36;;;;;;;4.23;2.73;;;;;;;29.17;33.83;99410.41;4972766;28;20481;-90
2022/07/27 09:53:25;;;;;;;4.20;3.10;;;;;;;29.18;33.72;99412.03;4974396;28;20453;-91
2022/07/27 09:56:26;;;;;;;3.93;3.53;;;;;;;29.40;33.11;99412.41;4972796;28;20480;-92
2022/07/27 09:59:00;;;;;;;3.90;3.03;;;;;;;29.49;33.10;99411.09;4956715;28;20489;-91
2022/07/27 10:01:29;;;;;;;3.13;2.83;;;;;;;29.44;32.69;99410.94;4974078;28;20455;-89
2022/07/27 10:04:13;;;;;;;;;;;;;;;;;;;;;
2022/07/27 10:06:55;;;;;;;;;;;;;;;;;;;;;
2022/07/27 10:09:24;;;;;;;3.37;3.17;;;;;;;29.24;33.41;99417.38;4972347;28;20520;-91
2022/07/27 10:12:00;;;;;;;;;;;;;;;;;;;;;
2022/07/27 10:14:29;;;;;;;2.80;2.60;;;;;;;29.35;32.84;99413.09;4974202;28;20220;-91
2022/07/27 10:17:06;;;;;;;2.93;2.73;;;;;;;29.28;32.95;99407.75;4967563;28;20456;-91
2022/07/27 10:19:49;;;;;;;3.40;3.10;;;;;;;29.23;32.50;99415.72;4973988;28;20501;-90
2022/07/27 10:23:07;;;;;;;2.70;2.50;;;;;;;29.38;32.31;99401.00;4975298;28;20466;-92
2022/07/27 10:25:41;;;;;;;3.50;3.20;;;;;;;29.70;31.92;99398.97;4967673;28;20463;-90
2022/07/27 10:28:26;;;;;;;3.83;2.97;;;;;;;29.43;32.25;99404.66;4974071;28;20476;-90
2022/07/27 10:31:37;;;;;;;3.30;3.10;;;;;;;28.72;33.10;99407.84;4974609;28;20551;-92
2022/07/27 10:37:34;;;;;;;4.00;2.47;;;;;;;27.99;33.79;99412.66;4972918;28;20483;-92
2022/07/27 10:43:33;;;;;;;2.73;2.53;;;;;;;28.51;34.47;99409.06;4967116;28;20537;-90
2022/07/27 10:45:59;;;;;;;3.00;2.70;;;;;;;28.90;34.18;99402.50;4973628;28;20896;-90
2022/07/27 10:49:17;;;;;;;6.30;3.23;;;;;;;28.97;34.36;99400.53;4974071;28;20537;-91
2022/07/27 10:51:56;;;;;;;3.97;3.53;;;;;;;29.22;33.89;99408.66;4948688;28;20278;-90
2022/07/27 10:54:31;;;;;;;4.07;3.40;;;;;;;29.07;33.48;99400.91;4960209;28;20937;-90
2022/07/27 10:57:34;;;;;;;;;;;;;;;;;;;;;
2022/07/27 11:00:08;;;;;;;3.03;2.57;;;;;;;28.81;33.76;99404.66;4971736;28;20465;-91
2022/07/27 11:02:50;;;;;;;3.20;2.90;;;;;;;29.10;33.62;99399.63;4986351;28;20463;-92
2022/07/27 11:05:37;;;;;;;3.67;3.37;;;;;;;29.37;33.03;99402.06;4988897;28;20209;-90
2022/07/27 11:08:06;;;;;;;4.00;3.00;;;;;;;29.09;33.07;99392.56;4986673;28;20534;-92
2022/07/27 11:10:45;;;;;;;3.20;2.77;;;;;;;28.92;33.63;99386.03;4989048;28;20457;-92
2022/07/27 11:13:34;;;;;;;3.13;2.43;;;;;;;28.94;32.97;99384.75;4973920;28;20478;-91
2022/07/27 11:16:19;;;;;;;;;;;;;;;;;;;;;
2022/07/27 11:18:54;;;;;;;2.57;2.30;;;;;;;28.29;33.09;99384.25;4964018;28;20469;-90
2022/07/27 11:21:31;;;;;;;3.23;2.60;;;;;;;28.35;33.08;99376.06;4973645;28;20452;-91
2022/07/27 11:24:22;;;;;;;2.50;2.30;;;;;;;28.68;32.40;99372.34;4975012;28;20535;-90
2022/07/27 11:26:54;;;;;;;2.67;2.47;;;;;;;28.94;31.82;99373.94;4975578;28;20463;-89
2022/07/27 11:29:36;;;;;;;2.97;2.67;;;;;;;29.02;31.15;99378.25;4944891;28;20480;-89
2022/07/27 11:32:02;;;;;;;2.67;2.00;;;;;;;29.09;30.71;99376.34;4954691;28;20457;-90
2022/07/27 11:34:42;;;;;;;2.87;2.20;;;;;;;29.24;30.71;99370.56;4973436;28;20453;-91
2022/07/27 11:37:22;;;;;;;3.33;2.10;;;;;;;29.25;30.41;99364.13;4972497;28;20503;-89
2022/07/27 11:39:58;;;;;;;2.70;1.80;;;;;;;29.26;29.23;99361.16;4958996;28;20509;-89
2022/07/27 11:42:49;;;;;;;2.00;1.73;;;;;;;29.29;28.13;99368.00;4956878;28;20938;-92
2022/07/27 11:46:01;;;;;;;;;;;;;;;;;;;;;
2022/07/27 11:49:03;;;;;;;;;;;;;;;;;;;;;
2022/07/27 11:51:51;;;;;;;1.90;1.50;;;;;;;29.09;28.99;99349.31;4956673;28;20958;-91
2022/07/27 11:54:30;;;;;;;1.97;1.83;;;;;;;29.20;28.35;99350.44;4950586;29;21026;-90
2022/07/27 11:57:04;;;;;;;2.23;2.00;;;;;;;29.28;28.48;99340.13;4955759;29;20465;-92
2022/07/27 11:59:40;;;;;;;1.90;1.80;;;;;;;29.33;28.91;99355.69;4955377;29;20446;-93
2022/07/27 12:02:14;;;;;;;1.90;1.70;;;;;;;28.94;28.68;99338.81;4959482;28;20462;-93
2022/07/27 12:04:42;;;;;;;2.80;2.03;;;;;;;28.79;29.23;99338.34;4958423;29;20500;-90
2022/07/27 12:07:25;;;;;;;;;;;;;;;;;;;;;
2022/07/27 12:09:56;;;;;;;2.13;1.93;;;;;;;28.71;28.84;99330.53;4955505;28;20452;-93
2022/07/27 12:12:34;;;;;;;4.57;2.13;;;;;;;28.63;29.26;99335.16;4955768;28;20461;-91
2022/07/27 12:15:14;;;;;;;2.10;2.00;;;;;;;28.54;29.83;99330.25;4954294;29;20465;-92
2022/07/27 12:17:46;;;;;;;2.13;1.93;;;;;;;28.29;30.17;99328.34;4954209;28;20959;-90
2022/07/27 12:20:16;;;;;;;2.73;2.10;;;;;;;27.93;30.21;99337.94;4945246;28;20515;-91
2022/07/27 12:22:45;;;;;;;3.00;2.23;;;;;;;27.75;30.95;99332.41;4955091;28;20454;-91
2022/07/27 12:25:18;;;;;;;2.77;2.23;;;;;;;27.54;31.65;99334.41;4951803;28;20520;-92
2022/07/27 12:27:57;;;;;;;2.47;2.10;;;;;;;27.48;31.48;99343.31;4949428;28;20525;-90